createdAt,value
2023-04-16T00:02:15.111Z,9.07
2023-04-16T00:04:42.301Z,9.07
2023-04-16T00:07:09.683Z,9.04
2023-04-16T00:09:36.708Z,9.04
2023-04-16T00:12:04.581Z,9.02
2023-04-16T00:14:31.931Z,9.02
2023-04-16T00:16:59.373Z,9.03
2023-04-16T00:19:26.377Z,9.03
2023-04-16T00:21:53.917Z,9.00
2023-04-16T00:24:20.904Z,8.98
2023-04-16T00:26:48.298Z,8.96
2023-04-16T00:29:15.346Z,8.97
2023-04-16T00:31:42.693Z,8.96
2023-04-16T00:34:09.750Z,8.94
2023-04-16T00:36:37.135Z,8.93
2023-04-16T00:39:04.215Z,8.92
2023-04-16T00:41:31.862Z,8.93
2023-04-16T00:43:58.853Z,8.91
2023-04-16T00:46:27.093Z,8.88
2023-04-16T00:48:55.284Z,8.87
2023-04-16T00:51:22.819Z,8.88
2023-04-16T00:53:51.090Z,8.87
2023-04-16T00:56:20.526Z,8.89
2023-04-16T00:58:48.014Z,8.88
2023-04-16T01:01:15.512Z,8.85
2023-04-16T01:03:48.556Z,8.83
2023-04-16T01:06:19.533Z,8.82
2023-04-16T01:08:47.153Z,8.82
2023-04-16T01:11:16.071Z,8.84
2023-04-16T01:13:43.149Z,8.81
2023-04-16T01:16:12.846Z,8.81
2023-04-16T01:18:40.084Z,8.81
2023-04-16T01:21:07.717Z,8.78
2023-04-16T01:23:35.055Z,8.75
2023-04-16T01:26:02.529Z,8.71
2023-04-16T01:28:29.524Z,8.69
2023-04-16T01:30:56.912Z,8.68
2023-04-16T01:33:23.871Z,8.68
2023-04-16T01:35:51.586Z,8.70
2023-04-16T01:38:18.628Z,8.72
2023-04-16T01:40:45.998Z,8.73
2023-04-16T01:43:13.025Z,8.73
2023-04-16T01:45:40.490Z,8.73
2023-04-16T01:48:07.530Z,8.73
2023-04-16T01:50:35.931Z,8.70
2023-04-16T01:53:05.204Z,8.67
2023-04-16T01:55:34.305Z,8.65
2023-04-16T01:58:01.267Z,8.65
2023-04-16T02:00:28.591Z,8.66
2023-04-16T02:02:55.827Z,8.68
2023-04-16T02:05:23.575Z,8.69
2023-04-16T02:07:50.599Z,8.69
2023-04-16T02:10:18.326Z,8.63
2023-04-16T02:12:45.488Z,8.60
2023-04-16T02:15:13.213Z,8.57
2023-04-16T02:17:40.344Z,8.55
2023-04-16T02:20:09.569Z,8.53
2023-04-16T02:22:37.104Z,8.53
2023-04-16T02:25:06.095Z,8.52
2023-04-16T02:27:33.175Z,8.52
2023-04-16T02:30:00.448Z,8.55
2023-04-16T02:32:27.585Z,8.54
2023-04-16T02:34:55.104Z,8.54
2023-04-16T02:37:22.146Z,8.58
2023-04-16T02:39:50.142Z,8.60
2023-04-16T02:42:17.334Z,8.59
2023-04-16T02:44:44.806Z,8.60
2023-04-16T02:47:11.818Z,8.63
2023-04-16T02:49:39.318Z,8.64
2023-04-16T02:52:06.472Z,8.67
2023-04-16T02:54:34.833Z,8.70
2023-04-16T02:57:08.227Z,8.71
2023-04-16T02:59:35.712Z,8.75
2023-04-16T03:02:05.498Z,8.78
2023-04-16T03:04:49.910Z,8.78
2023-04-16T03:07:18.541Z,8.78
2023-04-16T03:09:46.148Z,8.81
2023-04-16T03:12:13.292Z,8.86
2023-04-16T03:14:40.783Z,8.85
2023-04-16T03:17:07.824Z,8.84
2023-04-16T03:19:35.241Z,8.84
2023-04-16T03:22:02.337Z,8.85
2023-04-16T03:24:29.769Z,8.84
2023-04-16T03:26:58.432Z,8.81
2023-04-16T03:29:27.369Z,8.81
2023-04-16T03:31:54.538Z,8.81
2023-04-16T03:34:21.890Z,8.83
2023-04-16T03:36:49.042Z,8.83
2023-04-16T03:39:16.326Z,8.81
2023-04-16T03:41:43.257Z,8.77
2023-04-16T03:44:10.792Z,8.77
2023-04-16T03:46:37.877Z,8.80
2023-04-16T03:49:05.262Z,8.80
2023-04-16T03:51:32.306Z,8.82
2023-04-16T03:53:59.808Z,8.82
2023-04-16T03:56:26.751Z,8.85
2023-04-16T03:58:54.496Z,8.88
2023-04-16T04:01:22.718Z,8.92
2023-04-16T04:03:50.595Z,8.92
2023-04-16T04:06:17.701Z,8.92
2023-04-16T04:08:45.086Z,8.94
2023-04-16T04:11:13.291Z,8.97
2023-04-16T04:13:40.872Z,8.94
2023-04-16T04:16:17.019Z,8.94
2023-04-16T04:18:44.779Z,8.93
2023-04-16T04:21:11.885Z,8.96
2023-04-16T04:23:41.765Z,8.99
2023-04-16T04:26:09.013Z,9.00
2023-04-16T04:28:37.005Z,9.03
2023-04-16T04:31:04.734Z,9.04
2023-04-16T04:33:32.259Z,9.08
2023-04-16T04:35:59.284Z,9.07
2023-04-16T04:38:26.715Z,9.07
2023-04-16T04:40:53.961Z,9.07
2023-04-16T04:43:22.037Z,9.07
2023-04-16T04:45:49.675Z,9.04
2023-04-16T04:48:17.735Z,9.03
2023-04-16T04:50:46.179Z,9.00
2023-04-16T04:53:15.035Z,9.00
2023-04-16T04:55:42.360Z,9.02
2023-04-16T04:58:09.735Z,9.02
2023-04-16T05:00:37.178Z,9.00
2023-04-16T05:03:09.810Z,8.98
2023-04-16T05:05:37.493Z,8.97
2023-04-16T05:08:05.153Z,8.97
2023-04-16T05:10:32.197Z,9.00
2023-04-16T05:12:59.551Z,9.03
2023-04-16T05:15:26.675Z,9.06
2023-04-16T05:17:56.433Z,9.04
2023-04-16T05:20:26.420Z,9.01
2023-04-16T05:22:55.462Z,9.03
2023-04-16T05:25:23.034Z,9.04
2023-04-16T05:27:50.454Z,9.08
2023-04-16T05:30:17.851Z,9.10
2023-04-16T05:32:45.512Z,9.13
2023-04-16T05:35:13.883Z,9.14
2023-04-16T05:37:42.789Z,9.11
2023-04-16T05:40:10.265Z,9.12
2023-04-16T05:42:37.766Z,9.12
2023-04-16T05:45:06.051Z,9.11
2023-04-16T05:47:33.666Z,9.13
2023-04-16T05:50:00.891Z,9.15
2023-04-16T05:52:28.464Z,9.15
2023-04-16T05:54:56.154Z,9.21
2023-04-16T05:57:23.641Z,9.25
2023-04-16T05:59:51.880Z,9.26
2023-04-16T06:02:20.717Z,9.29
2023-04-16T06:04:50.123Z,9.30
2023-04-16T06:07:19.801Z,9.28
2023-04-16T06:09:47.351Z,9.30
2023-04-16T06:12:14.724Z,9.27
2023-04-16T06:14:41.731Z,9.32
2023-04-16T06:17:10.163Z,9.33
2023-04-16T06:19:37.174Z,9.36
2023-04-16T06:22:06.593Z,9.36
2023-04-16T06:24:33.481Z,9.34
2023-04-16T06:27:01.928Z,9.32
2023-04-16T06:29:40.643Z,9.32
2023-04-16T06:32:09.238Z,9.35
2023-04-16T06:34:37.467Z,9.34
2023-04-16T06:37:05.089Z,9.38
2023-04-16T06:39:34.344Z,9.45
2023-04-16T06:42:04.338Z,9.44
2023-04-16T06:44:31.640Z,9.44
2023-04-16T06:47:00.285Z,9.45
2023-04-16T06:49:27.344Z,9.43
2023-04-16T06:51:54.634Z,9.45
2023-04-16T06:54:21.823Z,9.49
2023-04-16T06:56:49.365Z,9.53
2023-04-16T06:59:18.919Z,9.61
2023-04-16T07:01:46.229Z,9.68
2023-04-16T07:04:13.349Z,9.74
2023-04-16T07:06:45.934Z,9.83
2023-04-16T07:09:13.003Z,9.85
2023-04-16T07:11:42.817Z,9.87
2023-04-16T07:14:10.190Z,9.91
2023-04-16T07:16:37.995Z,9.87
2023-04-16T07:19:05.431Z,9.84
2023-04-16T07:21:33.220Z,9.84
2023-04-16T07:24:01.035Z,9.85
2023-04-16T07:26:28.389Z,9.88
2023-04-16T07:28:55.455Z,9.91
2023-04-16T07:31:23.249Z,9.96
2023-04-16T07:33:50.810Z,9.96
2023-04-16T07:36:19.048Z,9.97
2023-04-16T07:38:49.202Z,9.96
2023-04-16T07:41:16.753Z,9.98
2023-04-16T07:43:44.492Z,10.04
2023-04-16T07:46:14.440Z,10.13
2023-04-16T07:48:42.503Z,10.22
2023-04-16T07:51:10.569Z,10.28
2023-04-16T07:53:37.649Z,10.34
2023-04-16T07:56:05.684Z,10.42
2023-04-16T07:58:35.373Z,10.55
2023-04-16T08:01:05.392Z,10.62
2023-04-16T08:03:32.942Z,10.65
2023-04-16T08:06:00.925Z,10.69
2023-04-16T08:08:29.114Z,10.77
2023-04-16T08:11:15.759Z,10.94
2023-04-16T08:13:46.412Z,11.08
2023-04-16T08:16:13.768Z,11.22
2023-04-16T08:18:41.175Z,11.28
2023-04-16T08:21:08.828Z,11.33
2023-04-16T08:23:36.239Z,11.40
2023-04-16T08:26:03.794Z,11.44
2023-04-16T08:28:31.438Z,11.50
2023-04-16T08:30:58.661Z,11.56
2023-04-16T08:33:26.720Z,11.64
2023-04-16T08:35:54.140Z,11.68
2023-04-16T08:38:21.511Z,11.78
2023-04-16T08:40:48.987Z,11.95
2023-04-16T08:43:18.295Z,12.17
2023-04-16T08:45:47.470Z,12.39
2023-04-16T08:48:16.063Z,12.49
2023-04-16T08:50:43.938Z,12.53
2023-04-16T08:53:18.340Z,12.65
2023-04-16T08:55:49.562Z,12.67
2023-04-16T08:58:22.555Z,12.64
2023-04-16T09:00:49.794Z,12.67
2023-04-16T09:03:17.474Z,12.65
2023-04-16T09:05:44.852Z,12.74
2023-04-16T09:08:13.638Z,12.77
2023-04-16T09:10:43.155Z,12.75
2023-04-16T09:13:11.823Z,12.87
2023-04-16T09:15:39.882Z,12.91
2023-04-16T09:18:07.400Z,12.95
2023-04-16T09:20:35.123Z,12.96
2023-04-16T09:23:03.003Z,12.98
2023-04-16T09:25:35.143Z,12.98
2023-04-16T09:28:02.598Z,12.99
2023-04-16T09:30:30.437Z,12.97
2023-04-16T09:33:22.619Z,13.08
2023-04-16T09:35:52.216Z,13.24
2023-04-16T09:38:22.100Z,13.28
2023-04-16T09:41:28.391Z,13.31
2023-04-16T09:44:01.839Z,13.39
2023-04-16T09:46:41.062Z,13.43
2023-04-16T09:49:19.027Z,13.48
2023-04-16T09:51:51.056Z,13.45
2023-04-16T09:54:20.213Z,13.50
2023-04-16T09:56:47.391Z,13.59
2023-04-16T09:59:18.742Z,13.68
2023-04-16T10:01:50.721Z,13.79
2023-04-16T10:04:18.567Z,13.94
2023-04-16T10:07:02.242Z,14.11
2023-04-16T10:09:43.761Z,14.37
2023-04-16T10:12:17.508Z,14.49
2023-04-16T10:14:46.473Z,14.59
2023-04-16T10:17:17.381Z,14.72
2023-04-16T10:19:45.980Z,14.74
2023-04-16T10:22:13.230Z,14.61
2023-04-16T10:24:42.023Z,14.46
2023-04-16T10:27:10.055Z,14.30
2023-04-16T10:29:37.925Z,14.13
2023-04-16T10:32:06.723Z,14.05
2023-04-16T10:34:35.246Z,14.04
2023-04-16T10:37:02.254Z,14.05
2023-04-16T10:39:32.506Z,14.03
2023-04-16T10:42:11.866Z,14.01
2023-04-16T10:44:43.450Z,14.00
2023-04-16T10:47:14.155Z,13.95
2023-04-16T10:49:42.730Z,14.09
2023-04-16T10:52:13.638Z,14.43
2023-04-16T10:54:41.717Z,14.54
2023-04-16T10:57:15.239Z,14.52
2023-04-16T10:59:45.129Z,14.42
2023-04-16T11:02:15.366Z,14.38
2023-04-16T11:04:47.445Z,14.41
2023-04-16T11:07:21.760Z,14.35
2023-04-16T11:09:52.214Z,14.24
2023-04-16T11:12:23.481Z,14.12
2023-04-16T11:14:59.061Z,14.06
2023-04-16T11:17:41.438Z,13.97
2023-04-16T11:20:22.881Z,13.85
2023-04-16T11:22:53.944Z,13.83
2023-04-16T11:25:24.866Z,13.79
2023-04-16T11:27:53.406Z,13.69
2023-04-16T11:30:31.173Z,13.62
2023-04-16T11:32:58.352Z,13.57
2023-04-16T11:35:27.937Z,13.54
2023-04-16T11:37:57.371Z,13.51
2023-04-16T11:40:26.252Z,13.51
2023-04-16T11:42:53.804Z,13.53
2023-04-16T11:45:21.201Z,13.64
2023-04-16T11:47:55.463Z,13.80
2023-04-16T11:50:27.778Z,13.95
2023-04-16T11:52:58.035Z,14.10
2023-04-16T11:55:27.428Z,14.19
2023-04-16T11:57:58.086Z,14.35
2023-04-16T12:00:35.412Z,14.50
2023-04-16T12:03:04.919Z,14.54
2023-04-16T12:05:32.480Z,14.35
2023-04-16T12:08:10.452Z,14.21
2023-04-16T12:10:53.907Z,14.20
2023-04-16T12:13:21.220Z,14.29
2023-04-16T12:15:50.809Z,14.42
2023-04-16T12:18:19.534Z,14.51
2023-04-16T12:20:47.602Z,14.60
2023-04-16T12:23:25.938Z,14.78
2023-04-16T12:26:03.124Z,14.73
2023-04-16T12:28:34.647Z,14.62
2023-04-16T12:31:03.560Z,14.70
2023-04-16T12:33:35.613Z,14.74
2023-04-16T12:36:19.413Z,14.74
2023-04-16T12:38:46.643Z,14.55
2023-04-16T12:41:14.062Z,14.37
2023-04-16T12:43:42.243Z,14.28
2023-04-16T12:46:09.638Z,14.25
2023-04-16T12:48:37.490Z,14.23
2023-04-16T12:51:07.751Z,14.17
2023-04-16T12:53:36.107Z,14.16
2023-04-16T12:56:03.870Z,14.21
2023-04-16T12:58:31.029Z,14.21
2023-04-16T13:01:00.994Z,14.18
2023-04-16T13:03:31.072Z,14.12
2023-04-16T13:05:58.791Z,14.08
2023-04-16T13:08:27.638Z,14.03
2023-04-16T13:10:55.778Z,14.01
2023-04-16T13:13:22.902Z,13.98
2023-04-16T13:15:51.701Z,13.95
2023-04-16T13:18:18.729Z,13.94
2023-04-16T13:20:46.442Z,13.90
2023-04-16T13:23:13.846Z,13.89
2023-04-16T13:25:42.650Z,13.86
2023-04-16T13:28:09.626Z,13.84
2023-04-16T13:30:37.487Z,13.76
2023-04-16T13:33:04.561Z,13.70
2023-04-16T13:35:31.966Z,13.71
2023-04-16T13:37:59.038Z,13.76
2023-04-16T13:40:26.487Z,13.82
2023-04-16T13:42:53.501Z,13.90
2023-04-16T13:45:20.951Z,14.02
2023-04-16T13:47:48.382Z,14.07
2023-04-16T13:50:16.534Z,14.09
2023-04-16T13:52:43.562Z,14.10
2023-04-16T13:55:13.915Z,14.07
2023-04-16T13:57:41.426Z,14.07
2023-04-16T14:00:12.649Z,14.04
2023-04-16T14:02:43.423Z,13.97
2023-04-16T14:05:11.754Z,13.94
2023-04-16T14:07:40.676Z,13.91
2023-04-16T14:10:08.944Z,13.95
2023-04-16T14:12:37.147Z,14.02
2023-04-16T14:15:06.608Z,14.07
2023-04-16T14:17:33.744Z,14.10
2023-04-16T14:20:01.323Z,14.11
2023-04-16T14:22:30.294Z,14.12
2023-04-16T14:25:00.136Z,14.04
2023-04-16T14:27:28.928Z,13.99
2023-04-16T14:29:58.864Z,13.91
2023-04-16T14:32:27.391Z,13.86
2023-04-16T14:35:10.441Z,13.84
2023-04-16T14:37:39.226Z,13.79
2023-04-16T14:40:09.006Z,13.75
2023-04-16T14:42:37.379Z,13.76
2023-04-16T14:45:09.743Z,13.77
2023-04-16T14:47:38.525Z,13.77
2023-04-16T14:50:06.448Z,13.70
2023-04-16T14:52:34.024Z,13.61
2023-04-16T14:55:07.318Z,13.58
2023-04-16T14:57:35.518Z,13.54
2023-04-16T15:00:07.671Z,13.49
2023-04-16T15:02:36.695Z,13.44
2023-04-16T15:05:08.763Z,13.42
2023-04-16T15:07:37.298Z,13.37
2023-04-16T15:10:05.394Z,13.33
2023-04-16T15:12:33.218Z,13.28
2023-04-16T15:15:00.679Z,13.27
2023-04-16T15:17:29.256Z,13.25
2023-04-16T15:20:20.830Z,13.23
2023-04-16T15:22:48.842Z,13.23
2023-04-16T15:25:16.049Z,13.20
2023-04-16T15:27:44.254Z,13.14
2023-04-16T15:30:36.559Z,13.11
2023-04-16T15:33:06.979Z,13.09
2023-04-16T15:35:37.193Z,13.06
2023-04-16T15:38:06.205Z,13.02
2023-04-16T15:40:33.293Z,13.00
2023-04-16T15:43:00.987Z,12.93
2023-04-16T15:45:29.043Z,12.93
2023-04-16T15:47:56.790Z,12.90
2023-04-16T15:50:25.679Z,12.86
2023-04-16T15:52:53.515Z,12.85
2023-04-16T15:55:21.094Z,12.86
2023-04-16T15:57:48.545Z,12.85
2023-04-16T16:00:19.472Z,12.84
2023-04-16T16:02:52.384Z,12.82
2023-04-16T16:05:19.984Z,12.81
2023-04-16T16:07:47.845Z,12.80
2023-04-16T16:10:15.041Z,12.76
2023-04-16T16:12:42.477Z,12.76
2023-04-16T16:15:11.311Z,12.74
2023-04-16T16:17:41.007Z,12.71
2023-04-16T16:20:11.376Z,12.72
2023-04-16T16:22:40.253Z,12.70
2023-04-16T16:25:09.792Z,12.69
2023-04-16T16:27:39.574Z,12.69
2023-04-16T16:30:11.718Z,12.66
2023-04-16T16:32:56.055Z,12.63
2023-04-16T16:35:26.361Z,12.62
2023-04-16T16:37:56.203Z,12.61
2023-04-16T16:40:23.894Z,12.57
2023-04-16T16:42:51.125Z,12.57
2023-04-16T16:45:18.675Z,12.54
2023-04-16T16:47:45.807Z,12.56
2023-04-16T16:50:13.305Z,12.54
2023-04-16T16:52:40.590Z,12.49
2023-04-16T16:55:11.509Z,12.53
2023-04-16T16:57:39.446Z,12.48
2023-04-16T17:00:16.413Z,12.48
2023-04-16T17:02:43.873Z,12.48
2023-04-16T17:05:12.726Z,12.42
2023-04-16T17:07:39.757Z,12.47
2023-04-16T17:10:07.883Z,12.45
2023-04-16T17:12:35.672Z,12.41
2023-04-16T17:15:03.210Z,12.41
2023-04-16T17:17:31.008Z,12.39
2023-04-16T17:19:58.368Z,12.38
2023-04-16T17:22:25.492Z,12.37
2023-04-16T17:24:52.909Z,12.36
2023-04-16T17:27:19.899Z,12.37
2023-04-16T17:29:47.216Z,12.38
2023-04-16T17:32:14.308Z,12.34
2023-04-16T17:34:41.613Z,12.31
2023-04-16T17:37:08.574Z,12.32
2023-04-16T17:39:35.983Z,12.29
2023-04-16T17:42:04.061Z,12.26
2023-04-16T17:44:31.494Z,12.25
2023-04-16T17:46:58.530Z,12.25
2023-04-16T17:49:25.892Z,12.22
2023-04-16T17:51:53.947Z,12.20
2023-04-16T17:54:24.319Z,12.17
2023-04-16T17:56:51.922Z,12.14
2023-04-16T17:59:28.757Z,12.11
2023-04-16T18:01:56.721Z,12.07
2023-04-16T18:04:24.632Z,12.05
2023-04-16T18:06:52.275Z,12.05
2023-04-16T18:09:19.825Z,12.02
2023-04-16T18:11:47.130Z,11.98
2023-04-16T18:14:16.987Z,11.93
2023-04-16T18:16:46.762Z,11.86
2023-04-16T18:19:16.204Z,11.79
2023-04-16T18:21:43.620Z,11.74
2023-04-16T18:24:11.627Z,11.68
2023-04-16T18:26:40.936Z,11.61
2023-04-16T18:29:09.627Z,11.55
2023-04-16T18:31:36.860Z,11.48
2023-04-16T18:34:04.717Z,11.44
2023-04-16T18:36:32.764Z,11.41
2023-04-16T18:39:02.670Z,11.42
2023-04-16T18:41:32.418Z,11.40
2023-04-16T18:44:00.823Z,11.38
2023-04-16T18:46:29.074Z,11.37
2023-04-16T18:48:56.878Z,11.37
2023-04-16T18:51:25.390Z,11.36
2023-04-16T18:53:52.791Z,11.38
2023-04-16T18:56:23.347Z,11.40
2023-04-16T18:58:50.690Z,11.42
2023-04-16T19:01:18.440Z,11.41
2023-04-16T19:03:47.861Z,11.36
2023-04-16T19:06:14.922Z,11.38
2023-04-16T19:08:43.811Z,11.38
2023-04-16T19:11:12.743Z,11.39
2023-04-16T19:13:41.028Z,11.40
2023-04-16T19:16:11.740Z,11.40
2023-04-16T19:18:40.609Z,11.39
2023-04-16T19:21:10.126Z,11.38
2023-04-16T19:23:38.087Z,11.37
2023-04-16T19:26:06.086Z,11.35
2023-04-16T19:28:34.442Z,11.35
2023-04-16T19:31:03.766Z,11.32
2023-04-16T19:33:32.152Z,11.29
2023-04-16T19:36:00.484Z,11.30
2023-04-16T19:38:28.150Z,11.27
2023-04-16T19:40:57.231Z,11.28
2023-04-16T19:43:34.637Z,11.27
2023-04-16T19:46:02.892Z,11.25
2023-04-16T19:48:32.805Z,11.26
2023-04-16T19:51:05.506Z,11.25
2023-04-16T19:53:34.529Z,11.24
2023-04-16T19:56:04.554Z,11.25
2023-04-16T19:58:32.799Z,11.26
2023-04-16T20:01:01.383Z,11.29
2023-04-16T20:03:29.023Z,11.29
2023-04-16T20:05:56.153Z,11.28
2023-04-16T20:08:23.640Z,11.28
2023-04-16T20:10:53.674Z,11.26
2023-04-16T20:13:21.068Z,11.25
2023-04-16T20:15:52.765Z,11.23
2023-04-16T20:18:21.208Z,11.23
2023-04-16T20:20:48.295Z,11.22
2023-04-16T20:23:15.791Z,11.21
2023-04-16T20:25:43.451Z,11.20
2023-04-16T20:28:10.984Z,11.19
2023-04-16T20:30:41.382Z,11.18
2023-04-16T20:33:09.341Z,11.14
2023-04-16T20:35:37.037Z,11.13
2023-04-16T20:38:06.132Z,11.11
2023-04-16T20:40:33.370Z,11.09
2023-04-16T20:43:00.771Z,11.06
2023-04-16T20:45:38.849Z,11.05
2023-04-16T20:48:11.619Z,11.05
2023-04-16T20:50:38.849Z,11.04
2023-04-16T20:53:07.150Z,11.05
2023-04-16T20:55:34.091Z,11.04
2023-04-16T20:58:02.677Z,11.04
2023-04-16T21:00:30.039Z,11.03
2023-04-16T21:02:57.481Z,11.01
2023-04-16T21:05:26.612Z,11.01
2023-04-16T21:07:55.765Z,11.00
2023-04-16T21:10:22.971Z,11.00
2023-04-16T21:12:50.396Z,11.01
2023-04-16T21:15:17.500Z,10.98
2023-04-16T21:17:44.942Z,10.97
2023-04-16T21:20:13.695Z,10.95
2023-04-16T21:22:41.271Z,10.94
2023-04-16T21:25:08.892Z,10.93
2023-04-16T21:27:36.264Z,10.90
2023-04-16T21:30:03.334Z,10.88
2023-04-16T21:32:30.683Z,10.86
2023-04-16T21:34:57.826Z,10.83
2023-04-16T21:37:26.517Z,10.82
2023-04-16T21:39:53.522Z,10.81
2023-04-16T21:42:20.967Z,10.79
2023-04-16T21:44:47.892Z,10.78
2023-04-16T21:47:15.474Z,10.79
2023-04-16T21:49:42.717Z,10.75
2023-04-16T21:52:19.713Z,10.76
2023-04-16T21:54:46.969Z,10.75
2023-04-16T21:57:14.779Z,10.75
2023-04-16T21:59:41.785Z,10.76
2023-04-16T22:02:09.237Z,10.75
2023-04-16T22:04:39.981Z,10.73
2023-04-16T22:07:11.930Z,10.73
2023-04-16T22:09:39.273Z,10.71
2023-04-16T22:12:12.934Z,10.70
2023-04-16T22:14:46.117Z,10.68
2023-04-16T22:17:17.262Z,10.65
2023-04-16T22:19:45.206Z,10.65
2023-04-16T22:22:12.641Z,10.64
2023-04-16T22:24:39.808Z,10.64
2023-04-16T22:27:08.302Z,10.62
2023-04-16T22:29:36.484Z,10.59
2023-04-16T22:32:03.856Z,10.56
2023-04-16T22:34:30.918Z,10.54
2023-04-16T22:36:59.084Z,10.51
2023-04-16T22:39:26.047Z,10.49
2023-04-16T22:41:53.385Z,10.46
2023-04-16T22:44:21.428Z,10.44
2023-04-16T22:46:48.796Z,10.43
2023-04-16T22:49:15.897Z,10.42
2023-04-16T22:51:43.500Z,10.40
2023-04-16T22:54:13.641Z,10.37
2023-04-16T22:56:41.397Z,10.36
2023-04-16T22:59:08.379Z,10.34
2023-04-16T23:01:35.962Z,10.32
2023-04-16T23:04:03.097Z,10.30
2023-04-16T23:06:31.627Z,10.29
2023-04-16T23:08:58.609Z,10.26
2023-04-16T23:11:25.911Z,10.24
2023-04-16T23:13:53.427Z,10.21
2023-04-16T23:16:20.884Z,10.17
2023-04-16T23:18:47.932Z,10.14
2023-04-16T23:21:15.325Z,10.10
2023-04-16T23:23:42.330Z,10.08
2023-04-16T23:26:09.770Z,10.06
2023-04-16T23:28:36.913Z,10.02
2023-04-16T23:31:06.651Z,10.00
2023-04-16T23:33:34.564Z,9.95
2023-04-16T23:36:01.851Z,9.93
2023-04-16T23:38:29.004Z,9.90
2023-04-16T23:40:56.338Z,9.83
2023-04-16T23:43:23.357Z,9.80
2023-04-16T23:45:50.912Z,9.76
2023-04-16T23:48:17.968Z,9.73
2023-04-16T23:50:45.330Z,9.71
2023-04-16T23:53:12.409Z,9.67
2023-04-16T23:55:40.054Z,9.64
2023-04-16T23:58:07.047Z,9.62
